sensor_id;sensor_type;location;lat;lon;timestamp;pressure;altitude;pressure_sealevel;temperature;humidity
40918;BME280;26644;50.248;19.032;2022-08-14T00:02:42;97878.59;;;17.32;100.00
40918;BME280;26644;50.248;19.032;2022-08-14T00:05:44;97870.00;;;17.25;100.00
40918;BME280;26644;50.248;19.032;2022-08-14T00:08:46;97873.38;;;17.31;100.00
40918;BME280;26644;50.248;19.032;2022-08-14T00:11:48;97871.75;;;17.30;100.00
40918;BME280;26644;50.248;19.032;2022-08-14T00:14:50;97866.91;;;17.26;100.00
40918;BME280;26644;50.248;19.032;2022-08-14T00:17:54;97868.38;;;17.24;100.00
40918;BME280;26644;50.248;19.032;2022-08-14T00:20:56;97838.34;;;17.05;100.00
40918;BME280;26644;50.248;19.032;2022-08-14T00:24:00;97838.47;;;17.08;100.00
40918;BME280;26644;50.248;19.032;2022-08-14T00:27:03;97828.41;;;17.04;100.00
40918;BME280;26644;50.248;19.032;2022-08-14T00:30:09;97860.06;;;17.24;100.00
40918;BME280;26644;50.248;19.032;2022-08-14T00:33:13;97855.19;;;17.21;100.00
40918;BME280;26644;50.248;19.032;2022-08-14T00:36:15;97845.09;;;17.16;100.00
40918;BME280;26644;50.248;19.032;2022-08-14T00:39:17;97845.59;;;17.18;100.00
40918;BME280;26644;50.248;19.032;2022-08-14T00:42:20;97823.66;;;17.04;100.00
40918;BME280;26644;50.248;19.032;2022-08-14T00:45:23;97822.00;;;17.03;100.00
40918;BME280;26644;50.248;19.032;2022-08-14T00:48:28;97805.81;;;16.93;100.00
40918;BME280;26644;50.248;19.032;2022-08-14T00:51:30;97796.00;;;16.96;100.00
40918;BME280;26644;50.248;19.032;2022-08-14T00:54:33;97778.94;;;16.85;100.00
40918;BME280;26644;50.248;19.032;2022-08-14T00:57:37;97820.13;;;17.16;100.00
40918;BME280;26644;50.248;19.032;2022-08-14T01:00:39;97826.47;;;17.17;100.00
40918;BME280;26644;50.248;19.032;2022-08-14T01:03:43;97816.56;;;17.16;100.00
40918;BME280;26644;50.248;19.032;2022-08-14T01:06:45;97815.72;;;17.15;100.00
40918;BME280;26644;50.248;19.032;2022-08-14T01:09:48;97810.53;;;17.14;100.00
40918;BME280;26644;50.248;19.032;2022-08-14T01:12:50;97822.75;;;17.13;100.00
40918;BME280;26644;50.248;19.032;2022-08-14T01:15:55;97824.75;;;17.12;100.00
40918;BME280;26644;50.248;19.032;2022-08-14T01:18:59;97826.38;;;17.13;100.00
40918;BME280;26644;50.248;19.032;2022-08-14T01:22:20;97817.72;;;17.15;100.00
40918;BME280;26644;50.248;19.032;2022-08-14T01:25:21;97824.41;;;17.14;100.00
40918;BME280;26644;50.248;19.032;2022-08-14T01:28:24;97814.94;;;17.15;100.00
40918;BME280;26644;50.248;19.032;2022-08-14T01:31:30;97818.16;;;17.17;100.00
40918;BME280;26644;50.248;19.032;2022-08-14T01:34:32;97814.59;;;17.16;100.00
40918;BME280;26644;50.248;19.032;2022-08-14T01:37:56;97807.41;;;17.15;100.00
40918;BME280;26644;50.248;19.032;2022-08-14T01:40:59;97813.09;;;17.19;100.00
40918;BME280;26644;50.248;19.032;2022-08-14T01:44:04;97818.16;;;17.17;100.00
40918;BME280;26644;50.248;19.032;2022-08-14T01:47:08;97785.38;;;16.98;100.00
40918;BME280;26644;50.248;19.032;2022-08-14T01:50:13;97813.31;;;17.14;100.00
40918;BME280;26644;50.248;19.032;2022-08-14T01:53:17;97769.00;;;16.84;100.00
40918;BME280;26644;50.248;19.032;2022-08-14T01:56:21;97787.41;;;16.88;100.00
40918;BME280;26644;50.248;19.032;2022-08-14T01:59:31;97798.84;;;17.08;100.00
40918;BME280;26644;50.248;19.032;2022-08-14T02:02:33;97800.81;;;17.07;100.00
40918;BME280;26644;50.248;19.032;2022-08-14T02:05:35;97798.03;;;17.07;100.00
40918;BME280;26644;50.248;19.032;2022-08-14T02:08:40;97802.28;;;17.05;100.00
40918;BME280;26644;50.248;19.032;2022-08-14T02:11:42;97799.53;;;17.05;100.00
40918;BME280;26644;50.248;19.032;2022-08-14T02:14:44;97808.50;;;17.02;100.00
40918;BME280;26644;50.248;19.032;2022-08-14T02:17:48;97775.56;;;16.79;100.00
40918;BME280;26644;50.248;19.032;2022-08-14T02:20:50;97816.00;;;17.01;100.00
40918;BME280;26644;50.248;19.032;2022-08-14T02:23:54;97812.75;;;16.99;100.00
40918;BME280;26644;50.248;19.032;2022-08-14T02:26:57;97807.56;;;16.98;100.00
40918;BME280;26644;50.248;19.032;2022-08-14T02:29:59;97800.88;;;16.99;100.00
40918;BME280;26644;50.248;19.032;2022-08-14T02:33:01;97793.75;;;16.89;100.00
40918;BME280;26644;50.248;19.032;2022-08-14T02:36:05;97799.09;;;16.94;100.00
40918;BME280;26644;50.248;19.032;2022-08-14T02:39:09;97782.00;;;16.92;100.00
40918;BME280;26644;50.248;19.032;2022-08-14T02:42:14;97785.38;;;16.98;100.00
40918;BME280;26644;50.248;19.032;2022-08-14T02:45:17;97793.84;;;17.01;100.00
40918;BME280;26644;50.248;19.032;2022-08-14T02:48:19;97793.34;;;16.99;100.00
40918;BME280;26644;50.248;19.032;2022-08-14T02:51:21;97791.06;;;17.01;100.00
40918;BME280;26644;50.248;19.032;2022-08-14T02:54:25;97774.00;;;16.90;100.00
40918;BME280;26644;50.248;19.032;2022-08-14T02:57:27;97807.69;;;17.01;100.00
40918;BME280;26644;50.248;19.032;2022-08-14T03:00:31;97753.72;;;16.77;100.00
40918;BME280;26644;50.248;19.032;2022-08-14T03:03:35;97787.44;;;17.01;99.88
40918;BME280;26644;50.248;19.032;2022-08-14T03:06:38;97791.41;;;17.00;100.00
40918;BME280;26644;50.248;19.032;2022-08-14T03:09:44;97770.63;;;16.85;100.00
40918;BME280;26644;50.248;19.032;2022-08-14T03:12:45;97783.28;;;16.94;100.00
40918;BME280;26644;50.248;19.032;2022-08-14T03:15:48;97782.13;;;16.96;100.00
40918;BME280;26644;50.248;19.032;2022-08-14T03:18:54;97745.25;;;16.74;99.74
40918;BME280;26644;50.248;19.032;2022-08-14T03:21:57;97778.53;;;16.95;99.80
40918;BME280;26644;50.248;19.032;2022-08-14T03:25:00;97780.03;;;16.92;99.84
40918;BME280;26644;50.248;19.032;2022-08-14T03:28:03;97776.78;;;16.90;100.00
40918;BME280;26644;50.248;19.032;2022-08-14T03:31:07;97783.63;;;16.93;100.00
40918;BME280;26644;50.248;19.032;2022-08-14T03:34:09;97775.63;;;16.91;100.00
40918;BME280;26644;50.248;19.032;2022-08-14T03:37:11;97782.13;;;16.96;99.99
40918;BME280;26644;50.248;19.032;2022-08-14T03:40:15;97770.91;;;16.92;99.79
40918;BME280;26644;50.248;19.032;2022-08-14T03:43:17;97781.31;;;16.95;99.86
40918;BME280;26644;50.248;19.032;2022-08-14T03:46:18;97779.38;;;16.96;99.90
40918;BME280;26644;50.248;19.032;2022-08-14T03:49:21;97780.50;;;16.94;99.98
40918;BME280;26644;50.248;19.032;2022-08-14T03:52:24;97676.59;;;16.28;99.87
40918;BME280;26644;50.248;19.032;2022-08-14T03:55:27;97763.47;;;16.84;100.00
40918;BME280;26644;50.248;19.032;2022-08-14T03:58:29;97779.03;;;16.97;99.84
40918;BME280;26644;50.248;19.032;2022-08-14T04:01:32;97773.69;;;16.92;99.74
40918;BME280;26644;50.248;19.032;2022-08-14T04:04:33;97781.78;;;16.97;99.86
40918;BME280;26644;50.248;19.032;2022-08-14T04:07:35;97776.25;;;16.97;99.66
40918;BME280;26644;50.248;19.032;2022-08-14T04:10:39;97779.63;;;17.03;99.70
40918;BME280;26644;50.248;19.032;2022-08-14T04:13:42;97784.03;;;17.04;99.67
40918;BME280;26644;50.248;19.032;2022-08-14T04:16:44;97773.72;;;17.04;99.42
40918;BME280;26644;50.248;19.032;2022-08-14T04:19:47;97772.44;;;17.02;99.62
40918;BME280;26644;50.248;19.032;2022-08-14T04:22:49;97772.94;;;17.04;99.51
40918;BME280;26644;50.248;19.032;2022-08-14T04:25:53;97770.69;;;16.97;99.52
40918;BME280;26644;50.248;19.032;2022-08-14T04:28:55;97748.22;;;16.90;99.57
40918;BME280;26644;50.248;19.032;2022-08-14T04:31:57;97773.88;;;17.08;99.38
40918;BME280;26644;50.248;19.032;2022-08-14T04:35:00;97778.47;;;17.04;99.33
40918;BME280;26644;50.248;19.032;2022-08-14T04:38:05;97776.84;;;17.03;99.53
40918;BME280;26644;50.248;19.032;2022-08-14T04:41:26;97745.22;;;16.83;99.53
40918;BME280;26644;50.248;19.032;2022-08-14T04:44:47;97772.34;;;16.98;99.75
40918;BME280;26644;50.248;19.032;2022-08-14T04:47:50;97763.88;;;16.94;100.00
40918;BME280;26644;50.248;19.032;2022-08-14T04:51:12;97762.38;;;16.97;99.88
40918;BME280;26644;50.248;19.032;2022-08-14T04:54:14;97749.25;;;16.85;100.00
40918;BME280;26644;50.248;19.032;2022-08-14T04:57:17;97765.63;;;16.99;100.00
40918;BME280;26644;50.248;19.032;2022-08-14T05:00:19;97766.44;;;17.00;100.00
40918;BME280;26644;50.248;19.032;2022-08-14T05:03:23;97759.97;;;16.96;99.94
40918;BME280;26644;50.248;19.032;2022-08-14T05:06:26;97766.09;;;17.01;100.00
40918;BME280;26644;50.248;19.032;2022-08-14T05:09:28;97743.03;;;16.88;100.00
40918;BME280;26644;50.248;19.032;2022-08-14T05:12:31;97760.22;;;17.03;99.94
40918;BME280;26644;50.248;19.032;2022-08-14T05:15:34;97751.41;;;17.01;100.00
40918;BME280;26644;50.248;19.032;2022-08-14T05:18:37;97758.94;;;17.00;100.00
40918;BME280;26644;50.248;19.032;2022-08-14T05:21:39;97762.97;;;17.03;100.00
40918;BME280;26644;50.248;19.032;2022-08-14T05:24:41;97746.22;;;16.99;100.00
40918;BME280;26644;50.248;19.032;2022-08-14T05:27:44;97749.59;;;17.05;100.00
40918;BME280;26644;50.248;19.032;2022-08-14T05:30:47;97745.84;;;17.01;100.00
40918;BME280;26644;50.248;19.032;2022-08-14T05:33:49;97752.69;;;17.03;100.00
40918;BME280;26644;50.248;19.032;2022-08-14T05:36:51;97750.47;;;16.97;100.00
40918;BME280;26644;50.248;19.032;2022-08-14T05:39:58;97741.50;;;17.00;100.00
40918;BME280;26644;50.248;19.032;2022-08-14T05:43:01;97760.94;;;17.12;100.00
40918;BME280;26644;50.248;19.032;2022-08-14T05:46:03;97756.22;;;17.13;100.00
40918;BME280;26644;50.248;19.032;2022-08-14T05:49:05;97759.59;;;17.18;100.00
40918;BME280;26644;50.248;19.032;2022-08-14T05:52:07;97757.28;;;17.20;100.00
40918;BME280;26644;50.248;19.032;2022-08-14T05:55:10;97755.00;;;17.22;100.00
40918;BME280;26644;50.248;19.032;2022-08-14T05:58:13;97759.66;;;17.31;100.00
40918;BME280;26644;50.248;19.032;2022-08-14T06:01:15;97755.38;;;17.33;100.00
40918;BME280;26644;50.248;19.032;2022-08-14T06:04:17;97740.38;;;17.34;100.00
40918;BME280;26644;50.248;19.032;2022-08-14T06:07:19;97729.69;;;17.24;100.00
40918;BME280;26644;50.248;19.032;2022-08-14T06:10:20;97740.16;;;17.39;100.00
40918;BME280;26644;50.248;19.032;2022-08-14T06:13:24;97746.28;;;17.45;100.00
40918;BME280;26644;50.248;19.032;2022-08-14T06:16:25;97707.88;;;17.35;100.00
40918;BME280;26644;50.248;19.032;2022-08-14T06:19:27;97732.59;;;17.49;100.00
40918;BME280;26644;50.248;19.032;2022-08-14T06:22:29;97745.78;;;17.64;99.93
40918;BME280;26644;50.248;19.032;2022-08-14T06:25:31;97742.94;;;17.73;100.00
40918;BME280;26644;50.248;19.032;2022-08-14T06:28:34;97752.78;;;17.83;99.79
40918;BME280;26644;50.248;19.032;2022-08-14T06:31:36;97742.00;;;17.81;99.66
40918;BME280;26644;50.248;19.032;2022-08-14T06:34:38;97743.41;;;17.87;99.42
40918;BME280;26644;50.248;19.032;2022-08-14T06:37:42;97726.41;;;17.76;99.16
40918;BME280;26644;50.248;19.032;2022-08-14T06:40:45;97753.47;;;17.92;99.02
40918;BME280;26644;50.248;19.032;2022-08-14T06:43:48;97752.81;;;17.95;99.48
40918;BME280;26644;50.248;19.032;2022-08-14T06:46:50;97739.03;;;17.99;99.10
40918;BME280;26644;50.248;19.032;2022-08-14T06:49:52;97721.66;;;17.89;99.26
40918;BME280;26644;50.248;19.032;2022-08-14T06:52:54;97745.97;;;18.05;98.73
40918;BME280;26644;50.248;19.032;2022-08-14T06:55:56;97725.63;;;17.88;98.68
40918;BME280;26644;50.248;19.032;2022-08-14T06:58:59;97746.81;;;18.18;99.20
40918;BME280;26644;50.248;19.032;2022-08-14T07:02:01;97736.25;;;18.23;98.72
40918;BME280;26644;50.248;19.032;2022-08-14T07:05:20;97742.28;;;18.38;98.81
40918;BME280;26644;50.248;19.032;2022-08-14T07:08:40;97729.31;;;18.30;97.69
40918;BME280;26644;50.248;19.032;2022-08-14T07:11:42;97749.34;;;18.48;98.32
40918;BME280;26644;50.248;19.032;2022-08-14T07:14:46;97721.69;;;18.39;97.78
40918;BME280;26644;50.248;19.032;2022-08-14T07:17:49;97747.16;;;18.66;98.44
40918;BME280;26644;50.248;19.032;2022-08-14T07:20:52;97739.50;;;18.75;97.79
40918;BME280;26644;50.248;19.032;2022-08-14T07:23:54;97747.06;;;18.90;96.65
40918;BME280;26644;50.248;19.032;2022-08-14T07:26:55;97744.22;;;18.87;96.12
40918;BME280;26644;50.248;19.032;2022-08-14T07:30:01;97743.06;;;18.88;96.15
40918;BME280;26644;50.248;19.032;2022-08-14T07:33:03;97733.09;;;18.74;96.02
40918;BME280;26644;50.248;19.032;2022-08-14T07:36:07;97741.31;;;18.83;95.94
40918;BME280;26644;50.248;19.032;2022-08-14T07:39:10;97711.50;;;18.55;95.50
40918;BME280;26644;50.248;19.032;2022-08-14T07:42:12;97738.34;;;18.64;95.15
40918;BME280;26644;50.248;19.032;2022-08-14T07:45:15;97706.59;;;18.40;95.69
40918;BME280;26644;50.248;19.032;2022-08-14T07:48:17;97712.78;;;18.46;95.87
40918;BME280;26644;50.248;19.032;2022-08-14T07:51:19;97739.38;;;18.71;96.44
40918;BME280;26644;50.248;19.032;2022-08-14T07:54:21;97745.84;;;18.75;96.13
40918;BME280;26644;50.248;19.032;2022-08-14T07:57:22;97747.94;;;18.79;96.13
40918;BME280;26644;50.248;19.032;2022-08-14T08:00:28;97751.88;;;18.77;95.56
40918;BME280;26644;50.248;19.032;2022-08-14T08:03:32;97736.03;;;18.66;95.24
40918;BME280;26644;50.248;19.032;2022-08-14T08:06:35;97743.81;;;18.60;95.44
40918;BME280;26644;50.248;19.032;2022-08-14T08:09:42;97743.34;;;18.58;95.62
40918;BME280;26644;50.248;19.032;2022-08-14T08:12:46;97726.44;;;18.51;96.11
40918;BME280;26644;50.248;19.032;2022-08-14T08:15:53;97745.16;;;18.66;96.15
40918;BME280;26644;50.248;19.032;2022-08-14T08:18:56;97704.53;;;18.49;95.83
40918;BME280;26644;50.248;19.032;2022-08-14T08:21:57;97738.66;;;18.74;96.20
40918;BME280;26644;50.248;19.032;2022-08-14T08:25:03;97727.53;;;18.74;95.83
40918;BME280;26644;50.248;19.032;2022-08-14T08:28:08;97730.66;;;18.73;95.48
40918;BME280;26644;50.248;19.032;2022-08-14T08:31:11;97735.69;;;18.67;95.42
40918;BME280;26644;50.248;19.032;2022-08-14T08:34:13;97735.19;;;18.65;95.84
40918;BME280;26644;50.248;19.032;2022-08-14T08:37:15;97730.31;;;18.74;96.50
40918;BME280;26644;50.248;19.032;2022-08-14T08:40:21;97728.78;;;18.89;96.68
40918;BME280;26644;50.248;19.032;2022-08-14T08:43:26;97712.91;;;18.90;96.32
40918;BME280;26644;50.248;19.032;2022-08-14T08:46:29;97738.22;;;19.13;96.21
40918;BME280;26644;50.248;19.032;2022-08-14T08:49:36;97731.22;;;19.19;95.75
40918;BME280;26644;50.248;19.032;2022-08-14T08:52:46;97731.22;;;19.19;95.00
40918;BME280;26644;50.248;19.032;2022-08-14T08:55:48;97731.44;;;19.26;95.33
40918;BME280;26644;50.248;19.032;2022-08-14T08:58:50;97725.38;;;19.37;95.06
40918;BME280;26644;50.248;19.032;2022-08-14T09:01:55;97632.63;;;18.88;95.05
40918;BME280;26644;50.248;19.032;2022-08-14T09:05:01;97726.34;;;19.57;95.07
40918;BME280;26644;50.248;19.032;2022-08-14T09:08:11;97724.91;;;19.63;94.31
40918;BME280;26644;50.248;19.032;2022-08-14T09:11:13;97695.50;;;19.50;94.22
40918;BME280;26644;50.248;19.032;2022-08-14T09:14:15;97724.75;;;19.72;94.09
40918;BME280;26644;50.248;19.032;2022-08-14T09:17:19;97683.69;;;19.53;94.42
40918;BME280;26644;50.248;19.032;2022-08-14T09:20:21;97725.75;;;19.96;94.67
40918;BME280;26644;50.248;19.032;2022-08-14T09:23:23;97728.28;;;20.17;94.16
40918;BME280;26644;50.248;19.032;2022-08-14T09:26:25;97690.59;;;20.23;93.99
40918;BME280;26644;50.248;19.032;2022-08-14T09:29:27;97721.66;;;20.57;92.92
40918;BME280;26644;50.248;19.032;2022-08-14T09:32:38;97682.16;;;20.55;93.09
40918;BME280;26644;50.248;19.032;2022-08-14T09:35:52;97716.69;;;21.02;93.08
40918;BME280;26644;50.248;19.032;2022-08-14T09:39:04;97721.75;;;21.16;91.30
40918;BME280;26644;50.248;19.032;2022-08-14T09:42:34;97717.41;;;21.18;90.50
40918;BME280;26644;50.248;19.032;2022-08-14T09:45:44;97715.88;;;21.21;90.59
40918;BME280;26644;50.248;19.032;2022-08-14T09:48:57;97709.91;;;21.22;90.18
40918;BME280;26644;50.248;19.032;2022-08-14T09:52:03;97713.66;;;21.30;89.77
40918;BME280;26644;50.248;19.032;2022-08-14T09:55:15;97706.81;;;21.28;88.21
40918;BME280;26644;50.248;19.032;2022-08-14T09:58:19;97706.19;;;20.95;87.28
40918;BME280;26644;50.248;19.032;2022-08-14T10:01:21;97715.75;;;20.78;87.00
40918;BME280;26644;50.248;19.032;2022-08-14T10:04:26;97693.66;;;20.34;87.40
40918;BME280;26644;50.248;19.032;2022-08-14T10:07:29;97714.94;;;20.42;88.78
40918;BME280;26644;50.248;19.032;2022-08-14T10:10:33;97709.94;;;20.16;88.28
40918;BME280;26644;50.248;19.032;2022-08-14T10:13:36;97706.50;;;20.06;89.24
40918;BME280;26644;50.248;19.032;2022-08-14T10:16:42;97719.94;;;20.17;89.77
40918;BME280;26644;50.248;19.032;2022-08-14T10:19:48;97714.78;;;20.19;90.12
40918;BME280;26644;50.248;19.032;2022-08-14T10:22:49;97714.34;;;20.33;90.70
40918;BME280;26644;50.248;19.032;2022-08-14T10:25:56;97708.00;;;20.52;91.21
40918;BME280;26644;50.248;19.032;2022-08-14T10:29:04;97706.34;;;20.86;91.06
40918;BME280;26644;50.248;19.032;2022-08-14T10:32:07;97716.03;;;21.28;90.42
40918;BME280;26644;50.248;19.032;2022-08-14T10:35:13;97709.19;;;21.68;89.87
40918;BME280;26644;50.248;19.032;2022-08-14T10:38:25;97712.22;;;22.02;87.95
40918;BME280;26644;50.248;19.032;2022-08-14T10:41:37;97714.75;;;22.11;87.06
40918;BME280;26644;50.248;19.032;2022-08-14T10:44:41;97700.44;;;22.16;87.52
40918;BME280;26644;50.248;19.032;2022-08-14T10:47:47;97716.50;;;22.46;86.26
40918;BME280;26644;50.248;19.032;2022-08-14T10:50:50;97714.59;;;22.50;83.39
40918;BME280;26644;50.248;19.032;2022-08-14T10:53:54;97721.47;;;22.33;82.80
40918;BME280;26644;50.248;19.032;2022-08-14T10:56:57;97707.50;;;22.06;83.23
40918;BME280;26644;50.248;19.032;2022-08-14T11:00:10;97722.28;;;22.34;83.18
40918;BME280;26644;50.248;19.032;2022-08-14T11:03:13;97724.66;;;22.32;82.75
40918;BME280;26644;50.248;19.032;2022-08-14T11:06:18;97699.03;;;22.26;82.31
40918;BME280;26644;50.248;19.032;2022-08-14T11:09:22;97713.59;;;22.66;81.98
40918;BME280;26644;50.248;19.032;2022-08-14T11:12:24;97700.72;;;22.88;82.19
40918;BME280;26644;50.248;19.032;2022-08-14T11:15:27;97711.28;;;23.32;81.76
40918;BME280;26644;50.248;19.032;2022-08-14T11:18:29;97696.47;;;23.32;80.57
40918;BME280;26644;50.248;19.032;2022-08-14T11:21:33;97716.69;;;23.52;79.28
40918;BME280;26644;50.248;19.032;2022-08-14T11:24:41;97713.78;;;23.41;78.78
40918;BME280;26644;50.248;19.032;2022-08-14T11:27:45;97720.66;;;23.47;79.02
40918;BME280;26644;50.248;19.032;2022-08-14T11:30:49;97710.34;;;23.55;78.86
40918;BME280;26644;50.248;19.032;2022-08-14T11:33:53;97674.19;;;23.43;78.18
40918;BME280;26644;50.248;19.032;2022-08-14T11:37:07;97713.22;;;23.62;76.46
40918;BME280;26644;50.248;19.032;2022-08-14T11:40:14;97704.75;;;23.58;76.23
40918;BME280;26644;50.248;19.032;2022-08-14T11:43:16;97713.09;;;23.51;75.51
40918;BME280;26644;50.248;19.032;2022-08-14T11:46:19;97714.22;;;23.43;74.74
40918;BME280;26644;50.248;19.032;2022-08-14T11:49:24;97710.53;;;23.35;74.34
40918;BME280;26644;50.248;19.032;2022-08-14T11:52:33;97702.19;;;23.43;75.34
40918;BME280;26644;50.248;19.032;2022-08-14T11:55:37;97700.59;;;23.41;73.40
40918;BME280;26644;50.248;19.032;2022-08-14T11:58:49;97697.31;;;23.36;73.45
40918;BME280;26644;50.248;19.032;2022-08-14T12:01:52;97705.31;;;23.34;74.17
40918;BME280;26644;50.248;19.032;2022-08-14T12:04:54;97704.41;;;23.60;74.83
40918;BME280;26644;50.248;19.032;2022-08-14T12:07:58;97710.25;;;23.89;74.15
40918;BME280;26644;50.248;19.032;2022-08-14T12:11:00;97695.00;;;23.83;72.80
40918;BME280;26644;50.248;19.032;2022-08-14T12:14:06;97698.66;;;23.87;71.61
40918;BME280;26644;50.248;19.032;2022-08-14T12:17:08;97703.19;;;23.61;71.69
40918;BME280;26644;50.248;19.032;2022-08-14T12:20:10;97698.16;;;23.40;70.80
40918;BME280;26644;50.248;19.032;2022-08-14T12:23:22;97695.09;;;23.18;70.44
40918;BME280;26644;50.248;19.032;2022-08-14T12:26:24;97694.22;;;22.80;70.73
40918;BME280;26644;50.248;19.032;2022-08-14T12:29:27;97691.03;;;22.51;71.02
40918;BME280;26644;50.248;19.032;2022-08-14T12:32:37;97686.66;;;22.54;71.72
40918;BME280;26644;50.248;19.032;2022-08-14T12:35:40;97686.44;;;22.66;70.71
40918;BME280;26644;50.248;19.032;2022-08-14T12:38:44;97677.94;;;22.59;71.51
40918;BME280;26644;50.248;19.032;2022-08-14T12:41:49;97687.63;;;22.65;70.56
40918;BME280;26644;50.248;19.032;2022-08-14T12:44:54;97696.09;;;22.72;70.71
40918;BME280;26644;50.248;19.032;2022-08-14T12:48:03;97659.44;;;22.51;70.70
40918;BME280;26644;50.248;19.032;2022-08-14T12:51:14;97690.88;;;22.71;70.50
40918;BME280;26644;50.248;19.032;2022-08-14T12:54:18;97675.06;;;22.52;70.50
40918;BME280;26644;50.248;19.032;2022-08-14T12:57:20;97689.41;;;22.50;71.02
40918;BME280;26644;50.248;19.032;2022-08-14T13:00:24;97680.41;;;22.37;70.81
40918;BME280;26644;50.248;19.032;2022-08-14T13:03:27;97594.63;;;21.88;71.37
40918;BME280;26644;50.248;19.032;2022-08-14T13:06:29;97664.88;;;22.40;71.09
40918;BME280;26644;50.248;19.032;2022-08-14T13:09:33;97656.72;;;22.54;71.10
40918;BME280;26644;50.248;19.032;2022-08-14T13:12:36;97639.63;;;22.63;71.46
40918;BME280;26644;50.248;19.032;2022-08-14T13:15:39;97629.84;;;22.80;71.16
40918;BME280;26644;50.248;19.032;2022-08-14T13:18:42;97636.53;;;23.02;70.68
40918;BME280;26644;50.248;19.032;2022-08-14T13:21:47;97633.44;;;23.15;69.24
40918;BME280;26644;50.248;19.032;2022-08-14T13:24:52;97631.88;;;23.14;69.54
40918;BME280;26644;50.248;19.032;2022-08-14T13:27:56;97618.31;;;23.19;69.35
40918;BME280;26644;50.248;19.032;2022-08-14T13:31:00;97642.97;;;23.40;69.69
40918;BME280;26644;50.248;19.032;2022-08-14T13:34:03;97602.09;;;23.32;70.19
40918;BME280;26644;50.248;19.032;2022-08-14T13:37:06;97602.97;;;23.44;69.11
40918;BME280;26644;50.248;19.032;2022-08-14T13:40:10;97618.22;;;23.46;67.79
40918;BME280;26644;50.248;19.032;2022-08-14T13:43:13;97624.09;;;23.34;67.24
40918;BME280;26644;50.248;19.032;2022-08-14T13:46:15;97596.19;;;23.07;66.73
40918;BME280;26644;50.248;19.032;2022-08-14T13:49:17;97614.28;;;23.17;66.94
40918;BME280;26644;50.248;19.032;2022-08-14T13:52:20;97613.84;;;23.15;66.41
40918;BME280;26644;50.248;19.032;2022-08-14T13:55:25;97521.63;;;22.54;66.61
40918;BME280;26644;50.248;19.032;2022-08-14T13:58:27;97601.41;;;23.08;66.58
40918;BME280;26644;50.248;19.032;2022-08-14T14:01:34;97572.09;;;22.95;66.96
40918;BME280;26644;50.248;19.032;2022-08-14T14:04:40;97578.28;;;23.19;67.31
40918;BME280;26644;50.248;19.032;2022-08-14T14:07:45;97582.50;;;23.36;67.41
40918;BME280;26644;50.248;19.032;2022-08-14T14:10:49;97581.06;;;23.53;67.47
40918;BME280;26644;50.248;19.032;2022-08-14T14:13:55;97581.19;;;23.67;67.36
40918;BME280;26644;50.248;19.032;2022-08-14T14:16:58;97584.41;;;23.73;67.16
40918;BME280;26644;50.248;19.032;2022-08-14T14:20:01;97586.53;;;23.90;67.58
40918;BME280;26644;50.248;19.032;2022-08-14T14:23:03;97573.00;;;23.96;67.19
40918;BME280;26644;50.248;19.032;2022-08-14T14:26:11;97575.84;;;24.03;66.58
40918;BME280;26644;50.248;19.032;2022-08-14T14:29:17;97587.84;;;24.00;66.51
40918;BME280;26644;50.248;19.032;2022-08-14T14:32:23;97588.50;;;23.86;66.51
40918;BME280;26644;50.248;19.032;2022-08-14T14:35:27;97575.66;;;23.78;66.82
40918;BME280;26644;50.248;19.032;2022-08-14T14:38:32;97579.28;;;23.79;66.70
40918;BME280;26644;50.248;19.032;2022-08-14T14:41:37;97583.19;;;23.70;66.66
40918;BME280;26644;50.248;19.032;2022-08-14T14:44:40;97562.28;;;23.53;66.33
40918;BME280;26644;50.248;19.032;2022-08-14T14:47:46;97559.78;;;23.45;66.44
40918;BME280;26644;50.248;19.032;2022-08-14T14:50:48;97567.44;;;23.51;66.28
40918;BME280;26644;50.248;19.032;2022-08-14T14:53:52;97570.19;;;23.48;66.53
40918;BME280;26644;50.248;19.032;2022-08-14T14:56:56;97576.59;;;23.45;66.60
40918;BME280;26644;50.248;19.032;2022-08-14T14:59:59;97584.19;;;23.44;66.86
40918;BME280;26644;50.248;19.032;2022-08-14T15:03:01;97585.38;;;23.43;66.96
40918;BME280;26644;50.248;19.032;2022-08-14T15:06:04;97563.25;;;23.31;67.16
40918;BME280;26644;50.248;19.032;2022-08-14T15:09:07;97555.16;;;23.22;67.10
40918;BME280;26644;50.248;19.032;2022-08-14T15:12:11;97582.94;;;23.38;66.99
40918;BME280;26644;50.248;19.032;2022-08-14T15:15:13;97585.28;;;23.36;67.29
40918;BME280;26644;50.248;19.032;2022-08-14T15:18:15;97591.38;;;23.41;67.80
40918;BME280;26644;50.248;19.032;2022-08-14T15:21:17;97588.19;;;23.43;67.65
40918;BME280;26644;50.248;19.032;2022-08-14T15:24:18;97583.41;;;23.47;67.76
40918;BME280;26644;50.248;19.032;2022-08-14T15:27:22;97563.78;;;23.44;67.62
40918;BME280;26644;50.248;19.032;2022-08-14T15:30:24;97589.13;;;23.62;67.76
40918;BME280;26644;50.248;19.032;2022-08-14T15:33:26;97510.75;;;23.20;67.07
40918;BME280;26644;50.248;19.032;2022-08-14T15:36:45;97574.72;;;23.60;67.27
40918;BME280;26644;50.248;19.032;2022-08-14T15:39:48;97498.25;;;23.11;66.91
40918;BME280;26644;50.248;19.032;2022-08-14T15:42:51;97576.28;;;23.57;67.02
40918;BME280;26644;50.248;19.032;2022-08-14T15:45:53;97565.84;;;23.54;66.99
40918;BME280;26644;50.248;19.032;2022-08-14T15:48:56;97581.50;;;23.58;67.19
40918;BME280;26644;50.248;19.032;2022-08-14T15:51:58;97573.09;;;23.58;67.15
40918;BME280;26644;50.248;19.032;2022-08-14T15:55:00;97582.31;;;23.59;66.88
40918;BME280;26644;50.248;19.032;2022-08-14T15:58:04;97581.91;;;23.61;66.69
40918;BME280;26644;50.248;19.032;2022-08-14T16:01:06;97579.16;;;23.64;66.68